EastWest Aircraft Sales has several offices across the USA. See map for information on the nearest airstrips.

Naples Municipal Airport

Available data for KAPF from the past 2 hours
NAPLES MUNICIPAL, FL
Metar
KAPF 160553Z AUTO 00000KT 10SM CLR 18/17 A2994 RMK AO2 SLP138 T01780167 10200 20172 58007

05:53 UTC

Wind: 0° 0kt

Visibility: 10 SM

Sky:

Temp: 18 deg C / 64.4 deg F

Dewpoint: 17 deg C / 62.6 deg F

Pressure: 29.94 inHg

TAF
KAPF 160536Z 1606/1706 VRB02KT P6SM FEW030 FM160900 00000KT 3SM BR SCT005 BKN015 FM161400 17005KT P6SM FEW010 SCT025 FM161800 21010KT P6SM FEW030 SCT250 FM170100 VRB02KT P6SM FEW040 SCT250

Hillsboro Airport

Available data for KHIO from the past 2 hours
HILLSBORO/PORTLD, OR
Metar
KHIO 160553Z AUTO 19006KT 10SM OVC019 05/03 A2969 RMK AO2 RAE00B18E44 SLP054 P0000 60009 T00500028 10078 20050 51009

05:53 UTC

Wind: 190° 6kt

Visibility: 10 SM

Sky: OVC 1900 ft

Temp: 5 deg C / 41 deg F

Dewpoint: 3 deg C / 37.4 deg F

Pressure: 29.69 inHg

TAF
KHIO 160526Z 1606/1706 18008KT P6SM -SHRA BKN015 OVC035 FM161300 18004KT P6SM -SHRA OVC015 FM161900 23006KT P6SM -SHRA OVC015 FM170300 VRB03KT P6SM OVC050